sensor_id;sensor_type;location;lat;lon;timestamp;P1;durP1;ratioP1;P2;durP2;ratioP2
3000;SDS011;1510;51.072;6.678;2023-04-26T00:01:31;813.63;;;764.43;;
3000;SDS011;1510;51.072;6.678;2023-04-26T00:03:59;747.77;;;707.10;;
3000;SDS011;1510;51.072;6.678;2023-04-26T00:06:26;800.73;;;751.87;;
3000;SDS011;1510;51.072;6.678;2023-04-26T00:08:53;789.73;;;742.73;;
3000;SDS011;1510;51.072;6.678;2023-04-26T00:11:22;791.23;;;742.57;;
3000;SDS011;1510;51.072;6.678;2023-04-26T00:13:49;804.60;;;754.57;;
3000;SDS011;1510;51.072;6.678;2023-04-26T00:16:15;827.13;;;771.27;;
3000;SDS011;1510;51.072;6.678;2023-04-26T00:18:44;800.97;;;748.33;;
3000;SDS011;1510;51.072;6.678;2023-04-26T00:21:11;806.67;;;755.97;;
3000;SDS011;1510;51.072;6.678;2023-04-26T00:23:39;804.10;;;753.72;;
3000;SDS011;1510;51.072;6.678;2023-04-26T00:26:07;807.63;;;754.83;;
3000;SDS011;1510;51.072;6.678;2023-04-26T00:28:35;807.40;;;756.33;;
3000;SDS011;1510;51.072;6.678;2023-04-26T00:31:02;811.33;;;758.90;;
3000;SDS011;1510;51.072;6.678;2023-04-26T00:33:29;813.58;;;760.05;;
3000;SDS011;1510;51.072;6.678;2023-04-26T00:35:55;806.58;;;754.05;;
3000;SDS011;1510;51.072;6.678;2023-04-26T00:38:22;833.17;;;778.40;;
3000;SDS011;1510;51.072;6.678;2023-04-26T00:40:49;833.37;;;775.77;;
3000;SDS011;1510;51.072;6.678;2023-04-26T00:43:16;833.22;;;774.85;;
3000;SDS011;1510;51.072;6.678;2023-04-26T00:45:44;830.27;;;771.27;;
3000;SDS011;1510;51.072;6.678;2023-04-26T00:48:11;825.92;;;765.40;;
3000;SDS011;1510;51.072;6.678;2023-04-26T00:50:38;827.63;;;767.88;;
3000;SDS011;1510;51.072;6.678;2023-04-26T00:53:05;816.90;;;760.17;;
3000;SDS011;1510;51.072;6.678;2023-04-26T00:55:34;818.00;;;763.50;;
3000;SDS011;1510;51.072;6.678;2023-04-26T00:58:01;813.27;;;759.97;;
3000;SDS011;1510;51.072;6.678;2023-04-26T01:00:28;796.67;;;748.97;;
3000;SDS011;1510;51.072;6.678;2023-04-26T01:02:56;799.13;;;750.55;;
3000;SDS011;1510;51.072;6.678;2023-04-26T01:05:23;801.17;;;750.57;;
3000;SDS011;1510;51.072;6.678;2023-04-26T01:07:52;802.72;;;752.15;;
3000;SDS011;1510;51.072;6.678;2023-04-26T01:10:19;816.63;;;763.43;;
3000;SDS011;1510;51.072;6.678;2023-04-26T01:12:46;829.70;;;774.23;;
3000;SDS011;1510;51.072;6.678;2023-04-26T01:15:13;822.58;;;767.00;;
3000;SDS011;1510;51.072;6.678;2023-04-26T01:17:40;814.88;;;760.60;;
3000;SDS011;1510;51.072;6.678;2023-04-26T01:20:12;824.80;;;768.35;;
3000;SDS011;1510;51.072;6.678;2023-04-26T01:22:40;812.33;;;760.50;;
3000;SDS011;1510;51.072;6.678;2023-04-26T01:25:07;837.47;;;779.00;;
3000;SDS011;1510;51.072;6.678;2023-04-26T01:27:37;823.97;;;765.77;;
3000;SDS011;1510;51.072;6.678;2023-04-26T01:30:04;846.42;;;785.15;;
3000;SDS011;1510;51.072;6.678;2023-04-26T01:32:32;857.78;;;797.20;;
3000;SDS011;1510;51.072;6.678;2023-04-26T01:34:59;854.50;;;793.63;;
3000;SDS011;1510;51.072;6.678;2023-04-26T01:37:26;851.00;;;789.37;;
3000;SDS011;1510;51.072;6.678;2023-04-26T01:39:54;850.42;;;790.22;;
3000;SDS011;1510;51.072;6.678;2023-04-26T01:42:21;856.20;;;796.25;;
3000;SDS011;1510;51.072;6.678;2023-04-26T01:44:48;867.17;;;806.20;;
3000;SDS011;1510;51.072;6.678;2023-04-26T01:47:15;870.10;;;807.72;;
3000;SDS011;1510;51.072;6.678;2023-04-26T01:49:42;867.70;;;803.85;;
3000;SDS011;1510;51.072;6.678;2023-04-26T01:52:09;859.30;;;795.67;;
3000;SDS011;1510;51.072;6.678;2023-04-26T01:54:36;852.80;;;788.47;;
3000;SDS011;1510;51.072;6.678;2023-04-26T01:57:04;832.90;;;772.03;;
3000;SDS011;1510;51.072;6.678;2023-04-26T01:59:33;853.22;;;791.33;;
3000;SDS011;1510;51.072;6.678;2023-04-26T02:02:00;844.85;;;785.08;;
3000;SDS011;1510;51.072;6.678;2023-04-26T02:04:27;843.72;;;783.85;;
3000;SDS011;1510;51.072;6.678;2023-04-26T02:06:54;818.30;;;759.92;;
3000;SDS011;1510;51.072;6.678;2023-04-26T02:09:21;832.15;;;774.30;;
3000;SDS011;1510;51.072;6.678;2023-04-26T02:11:48;851.15;;;788.50;;
3000;SDS011;1510;51.072;6.678;2023-04-26T02:14:16;844.08;;;778.58;;
3000;SDS011;1510;51.072;6.678;2023-04-26T02:16:45;831.92;;;767.67;;
3000;SDS011;1510;51.072;6.678;2023-04-26T02:19:12;849.03;;;784.13;;
3000;SDS011;1510;51.072;6.678;2023-04-26T02:21:49;847.83;;;783.85;;
3000;SDS011;1510;51.072;6.678;2023-04-26T02:24:17;849.92;;;786.35;;
3000;SDS011;1510;51.072;6.678;2023-04-26T02:26:47;832.55;;;769.30;;
3000;SDS011;1510;51.072;6.678;2023-04-26T02:29:16;833.47;;;770.10;;
3000;SDS011;1510;51.072;6.678;2023-04-26T02:31:44;856.35;;;790.17;;
3000;SDS011;1510;51.072;6.678;2023-04-26T02:34:12;840.90;;;776.17;;
3000;SDS011;1510;51.072;6.678;2023-04-26T02:36:40;821.45;;;758.53;;
3000;SDS011;1510;51.072;6.678;2023-04-26T02:39:07;814.35;;;753.30;;
3000;SDS011;1510;51.072;6.678;2023-04-26T02:41:34;818.75;;;758.80;;
3000;SDS011;1510;51.072;6.678;2023-04-26T02:44:01;816.58;;;756.92;;
3000;SDS011;1510;51.072;6.678;2023-04-26T02:46:29;817.50;;;757.80;;
3000;SDS011;1510;51.072;6.678;2023-04-26T02:48:56;828.13;;;767.13;;
3000;SDS011;1510;51.072;6.678;2023-04-26T02:51:23;834.95;;;773.20;;
3000;SDS011;1510;51.072;6.678;2023-04-26T02:53:51;839.05;;;777.50;;
3000;SDS011;1510;51.072;6.678;2023-04-26T02:56:17;833.25;;;772.97;;
3000;SDS011;1510;51.072;6.678;2023-04-26T02:58:47;822.40;;;764.13;;
3000;SDS011;1510;51.072;6.678;2023-04-26T03:01:14;818.03;;;759.00;;
3000;SDS011;1510;51.072;6.678;2023-04-26T03:03:43;818.65;;;759.20;;
3000;SDS011;1510;51.072;6.678;2023-04-26T03:06:11;811.05;;;751.75;;
3000;SDS011;1510;51.072;6.678;2023-04-26T03:08:38;812.85;;;754.00;;
3000;SDS011;1510;51.072;6.678;2023-04-26T03:11:04;806.28;;;747.60;;
3000;SDS011;1510;51.072;6.678;2023-04-26T03:13:31;803.17;;;744.13;;
3000;SDS011;1510;51.072;6.678;2023-04-26T03:15:58;795.83;;;738.60;;
3000;SDS011;1510;51.072;6.678;2023-04-26T03:18:25;778.72;;;721.55;;
3000;SDS011;1510;51.072;6.678;2023-04-26T03:20:54;782.55;;;725.25;;
3000;SDS011;1510;51.072;6.678;2023-04-26T03:23:21;782.38;;;724.65;;
3000;SDS011;1510;51.072;6.678;2023-04-26T03:25:48;796.65;;;738.65;;
3000;SDS011;1510;51.072;6.678;2023-04-26T03:28:15;776.83;;;718.92;;
3000;SDS011;1510;51.072;6.678;2023-04-26T03:30:42;769.90;;;713.05;;
3000;SDS011;1510;51.072;6.678;2023-04-26T03:33:09;783.10;;;726.40;;
3000;SDS011;1510;51.072;6.678;2023-04-26T03:35:36;789.63;;;731.40;;
3000;SDS011;1510;51.072;6.678;2023-04-26T03:38:04;783.08;;;725.72;;
3000;SDS011;1510;51.072;6.678;2023-04-26T03:40:31;766.50;;;709.30;;
3000;SDS011;1510;51.072;6.678;2023-04-26T03:42:58;780.38;;;722.17;;
3000;SDS011;1510;51.072;6.678;2023-04-26T03:45:25;777.30;;;719.30;;
3000;SDS011;1510;51.072;6.678;2023-04-26T03:47:52;776.20;;;719.35;;
3000;SDS011;1510;51.072;6.678;2023-04-26T03:50:19;766.72;;;710.30;;
3000;SDS011;1510;51.072;6.678;2023-04-26T03:52:46;784.67;;;728.13;;
3000;SDS011;1510;51.072;6.678;2023-04-26T03:55:16;786.53;;;729.35;;
3000;SDS011;1510;51.072;6.678;2023-04-26T03:57:43;785.75;;;726.90;;
3000;SDS011;1510;51.072;6.678;2023-04-26T04:00:11;798.45;;;739.75;;
3000;SDS011;1510;51.072;6.678;2023-04-26T04:02:39;779.35;;;721.67;;
3000;SDS011;1510;51.072;6.678;2023-04-26T04:05:06;775.55;;;716.30;;
3000;SDS011;1510;51.072;6.678;2023-04-26T04:07:34;756.03;;;699.22;;
3000;SDS011;1510;51.072;6.678;2023-04-26T04:10:01;748.25;;;692.47;;
3000;SDS011;1510;51.072;6.678;2023-04-26T04:12:29;749.10;;;693.20;;
3000;SDS011;1510;51.072;6.678;2023-04-26T04:14:56;752.85;;;697.85;;
3000;SDS011;1510;51.072;6.678;2023-04-26T04:17:23;769.70;;;712.30;;
3000;SDS011;1510;51.072;6.678;2023-04-26T04:19:50;776.88;;;717.60;;
3000;SDS011;1510;51.072;6.678;2023-04-26T04:22:17;776.38;;;716.83;;
3000;SDS011;1510;51.072;6.678;2023-04-26T04:24:43;763.53;;;705.85;;
3000;SDS011;1510;51.072;6.678;2023-04-26T04:27:11;769.85;;;711.95;;
3000;SDS011;1510;51.072;6.678;2023-04-26T04:29:40;754.70;;;697.40;;
3000;SDS011;1510;51.072;6.678;2023-04-26T04:32:07;768.63;;;710.38;;
3000;SDS011;1510;51.072;6.678;2023-04-26T04:34:34;784.78;;;724.10;;
3000;SDS011;1510;51.072;6.678;2023-04-26T04:37:01;801.15;;;741.03;;
3000;SDS011;1510;51.072;6.678;2023-04-26T04:39:29;798.15;;;737.10;;
3000;SDS011;1510;51.072;6.678;2023-04-26T04:41:56;786.08;;;724.47;;
3000;SDS011;1510;51.072;6.678;2023-04-26T04:44:24;797.05;;;736.50;;
3000;SDS011;1510;51.072;6.678;2023-04-26T04:46:53;796.95;;;736.25;;
3000;SDS011;1510;51.072;6.678;2023-04-26T04:49:20;821.03;;;757.25;;
3000;SDS011;1510;51.072;6.678;2023-04-26T04:51:49;811.97;;;748.60;;
3000;SDS011;1510;51.072;6.678;2023-04-26T04:54:16;800.53;;;737.45;;
3000;SDS011;1510;51.072;6.678;2023-04-26T04:56:44;809.33;;;746.22;;
3000;SDS011;1510;51.072;6.678;2023-04-26T04:59:11;826.05;;;762.78;;
3000;SDS011;1510;51.072;6.678;2023-04-26T05:01:38;829.38;;;765.47;;
3000;SDS011;1510;51.072;6.678;2023-04-26T05:04:06;837.28;;;772.38;;
3000;SDS011;1510;51.072;6.678;2023-04-26T05:06:33;842.55;;;773.97;;
3000;SDS011;1510;51.072;6.678;2023-04-26T05:09:00;826.50;;;758.50;;
3000;SDS011;1510;51.072;6.678;2023-04-26T05:11:28;837.63;;;769.03;;
3000;SDS011;1510;51.072;6.678;2023-04-26T05:13:55;850.65;;;779.60;;
3000;SDS011;1510;51.072;6.678;2023-04-26T05:16:22;825.17;;;753.50;;
3000;SDS011;1510;51.072;6.678;2023-04-26T05:18:49;820.70;;;748.05;;
3000;SDS011;1510;51.072;6.678;2023-04-26T05:21:20;833.75;;;755.30;;
3000;SDS011;1510;51.072;6.678;2023-04-26T05:23:48;829.20;;;747.93;;
3000;SDS011;1510;51.072;6.678;2023-04-26T05:26:16;801.23;;;721.03;;
3000;SDS011;1510;51.072;6.678;2023-04-26T05:28:43;773.63;;;696.60;;
3000;SDS011;1510;51.072;6.678;2023-04-26T05:31:10;735.33;;;662.70;;
3000;SDS011;1510;51.072;6.678;2023-04-26T05:33:37;646.20;;;585.57;;
3000;SDS011;1510;51.072;6.678;2023-04-26T05:36:05;612.83;;;558.37;;
3000;SDS011;1510;51.072;6.678;2023-04-26T05:38:36;608.60;;;560.47;;
3000;SDS011;1510;51.072;6.678;2023-04-26T05:41:03;490.77;;;460.20;;
3000;SDS011;1510;51.072;6.678;2023-04-26T05:43:30;280.43;;;265.00;;
3000;SDS011;1510;51.072;6.678;2023-04-26T05:45:57;158.97;;;150.03;;
3000;SDS011;1510;51.072;6.678;2023-04-26T05:48:24;125.80;;;118.37;;
3000;SDS011;1510;51.072;6.678;2023-04-26T05:50:51;37.10;;;33.97;;
3000;SDS011;1510;51.072;6.678;2023-04-26T05:53:19;22.30;;;17.90;;
3000;SDS011;1510;51.072;6.678;2023-04-26T05:55:47;15.07;;;9.27;;
3000;SDS011;1510;51.072;6.678;2023-04-26T05:58:14;15.43;;;8.87;;
3000;SDS011;1510;51.072;6.678;2023-04-26T06:00:41;18.53;;;8.70;;
3000;SDS011;1510;51.072;6.678;2023-04-26T06:03:08;19.63;;;9.20;;
3000;SDS011;1510;51.072;6.678;2023-04-26T06:05:35;17.53;;;7.70;;
3000;SDS011;1510;51.072;6.678;2023-04-26T06:08:03;26.23;;;7.87;;
3000;SDS011;1510;51.072;6.678;2023-04-26T06:10:30;12.83;;;7.30;;
3000;SDS011;1510;51.072;6.678;2023-04-26T06:12:59;15.00;;;8.60;;
3000;SDS011;1510;51.072;6.678;2023-04-26T06:15:26;24.30;;;8.23;;
3000;SDS011;1510;51.072;6.678;2023-04-26T06:17:53;17.80;;;9.80;;
3000;SDS011;1510;51.072;6.678;2023-04-26T06:20:20;21.10;;;8.97;;
3000;SDS011;1510;51.072;6.678;2023-04-26T06:22:47;20.20;;;8.80;;
3000;SDS011;1510;51.072;6.678;2023-04-26T06:25:14;18.23;;;9.20;;
3000;SDS011;1510;51.072;6.678;2023-04-26T06:27:41;31.10;;;9.70;;
3000;SDS011;1510;51.072;6.678;2023-04-26T06:30:09;22.83;;;8.73;;
3000;SDS011;1510;51.072;6.678;2023-04-26T06:32:37;26.87;;;11.57;;
3000;SDS011;1510;51.072;6.678;2023-04-26T06:35:04;25.30;;;11.10;;
3000;SDS011;1510;51.072;6.678;2023-04-26T06:37:31;18.20;;;9.60;;
3000;SDS011;1510;51.072;6.678;2023-04-26T06:39:59;28.77;;;10.13;;
3000;SDS011;1510;51.072;6.678;2023-04-26T06:42:26;22.73;;;9.03;;
3000;SDS011;1510;51.072;6.678;2023-04-26T06:44:53;20.23;;;9.30;;
3000;SDS011;1510;51.072;6.678;2023-04-26T06:47:32;25.10;;;8.00;;
3000;SDS011;1510;51.072;6.678;2023-04-26T06:49:59;17.27;;;8.43;;
3000;SDS011;1510;51.072;6.678;2023-04-26T06:52:26;15.93;;;6.97;;
3000;SDS011;1510;51.072;6.678;2023-04-26T06:54:53;25.30;;;8.93;;
3000;SDS011;1510;51.072;6.678;2023-04-26T06:57:20;18.27;;;7.73;;
3000;SDS011;1510;51.072;6.678;2023-04-26T06:59:48;12.87;;;6.63;;
3000;SDS011;1510;51.072;6.678;2023-04-26T07:02:16;15.60;;;6.43;;
3000;SDS011;1510;51.072;6.678;2023-04-26T07:04:44;25.17;;;8.37;;
3000;SDS011;1510;51.072;6.678;2023-04-26T07:07:11;9.50;;;5.57;;
3000;SDS011;1510;51.072;6.678;2023-04-26T07:09:40;13.47;;;6.33;;
3000;SDS011;1510;51.072;6.678;2023-04-26T07:12:09;19.40;;;5.67;;
3000;SDS011;1510;51.072;6.678;2023-04-26T07:14:36;16.03;;;6.17;;
3000;SDS011;1510;51.072;6.678;2023-04-26T07:17:04;19.90;;;6.70;;
3000;SDS011;1510;51.072;6.678;2023-04-26T07:19:31;11.67;;;6.77;;
3000;SDS011;1510;51.072;6.678;2023-04-26T07:22:00;13.97;;;5.60;;
3000;SDS011;1510;51.072;6.678;2023-04-26T07:24:27;11.47;;;5.70;;
3000;SDS011;1510;51.072;6.678;2023-04-26T07:26:55;20.70;;;5.07;;
3000;SDS011;1510;51.072;6.678;2023-04-26T07:29:21;19.13;;;5.47;;
3000;SDS011;1510;51.072;6.678;2023-04-26T07:31:49;15.37;;;6.00;;
3000;SDS011;1510;51.072;6.678;2023-04-26T07:34:16;10.87;;;5.23;;
3000;SDS011;1510;51.072;6.678;2023-04-26T07:36:45;12.17;;;4.33;;
3000;SDS011;1510;51.072;6.678;2023-04-26T07:39:15;14.43;;;5.55;;
3000;SDS011;1510;51.072;6.678;2023-04-26T07:41:41;7.23;;;3.40;;
3000;SDS011;1510;51.072;6.678;2023-04-26T07:44:08;13.53;;;4.83;;
3000;SDS011;1510;51.072;6.678;2023-04-26T07:46:35;10.73;;;3.93;;
3000;SDS011;1510;51.072;6.678;2023-04-26T07:49:02;11.00;;;3.80;;
3000;SDS011;1510;51.072;6.678;2023-04-26T07:51:29;10.20;;;4.07;;
3000;SDS011;1510;51.072;6.678;2023-04-26T07:53:56;8.87;;;3.77;;
3000;SDS011;1510;51.072;6.678;2023-04-26T07:56:25;10.80;;;4.47;;
3000;SDS011;1510;51.072;6.678;2023-04-26T07:58:52;9.03;;;3.10;;
3000;SDS011;1510;51.072;6.678;2023-04-26T08:01:20;15.80;;;3.43;;
3000;SDS011;1510;51.072;6.678;2023-04-26T08:03:47;10.57;;;3.70;;
3000;SDS011;1510;51.072;6.678;2023-04-26T08:06:14;10.07;;;4.63;;
3000;SDS011;1510;51.072;6.678;2023-04-26T08:08:41;12.03;;;3.53;;
3000;SDS011;1510;51.072;6.678;2023-04-26T08:11:13;13.17;;;4.20;;
3000;SDS011;1510;51.072;6.678;2023-04-26T08:13:41;9.30;;;4.23;;
3000;SDS011;1510;51.072;6.678;2023-04-26T08:16:09;9.73;;;4.20;;
3000;SDS011;1510;51.072;6.678;2023-04-26T08:18:36;12.40;;;4.10;;
3000;SDS011;1510;51.072;6.678;2023-04-26T08:21:03;15.40;;;7.20;;
3000;SDS011;1510;51.072;6.678;2023-04-26T08:23:31;11.10;;;3.97;;
3000;SDS011;1510;51.072;6.678;2023-04-26T08:26:00;26.03;;;5.13;;
3000;SDS011;1510;51.072;6.678;2023-04-26T08:28:27;11.70;;;4.90;;
3000;SDS011;1510;51.072;6.678;2023-04-26T08:30:55;12.60;;;5.00;;
3000;SDS011;1510;51.072;6.678;2023-04-26T08:33:23;14.27;;;5.17;;
3000;SDS011;1510;51.072;6.678;2023-04-26T08:35:50;11.90;;;5.80;;
3000;SDS011;1510;51.072;6.678;2023-04-26T08:38:17;12.07;;;5.03;;
3000;SDS011;1510;51.072;6.678;2023-04-26T08:40:46;12.77;;;4.33;;
3000;SDS011;1510;51.072;6.678;2023-04-26T08:43:13;13.97;;;4.33;;
3000;SDS011;1510;51.072;6.678;2023-04-26T08:45:43;12.47;;;4.80;;
3000;SDS011;1510;51.072;6.678;2023-04-26T08:48:13;27.67;;;6.53;;
3000;SDS011;1510;51.072;6.678;2023-04-26T08:50:42;12.60;;;5.30;;
3000;SDS011;1510;51.072;6.678;2023-04-26T08:53:12;17.47;;;4.00;;
3000;SDS011;1510;51.072;6.678;2023-04-26T08:55:41;13.53;;;3.60;;
3000;SDS011;1510;51.072;6.678;2023-04-26T08:58:13;11.27;;;3.97;;
3000;SDS011;1510;51.072;6.678;2023-04-26T09:00:41;13.17;;;3.80;;
3000;SDS011;1510;51.072;6.678;2023-04-26T09:03:10;7.67;;;2.97;;
3000;SDS011;1510;51.072;6.678;2023-04-26T09:05:39;10.43;;;4.40;;
3000;SDS011;1510;51.072;6.678;2023-04-26T09:08:10;9.30;;;4.13;;
3000;SDS011;1510;51.072;6.678;2023-04-26T09:10:41;14.60;;;5.00;;
3000;SDS011;1510;51.072;6.678;2023-04-26T09:13:09;11.80;;;3.20;;
3000;SDS011;1510;51.072;6.678;2023-04-26T09:15:36;16.47;;;3.97;;
3000;SDS011;1510;51.072;6.678;2023-04-26T09:18:16;9.33;;;3.73;;
3000;SDS011;1510;51.072;6.678;2023-04-26T09:20:46;7.00;;;2.40;;
3000;SDS011;1510;51.072;6.678;2023-04-26T09:23:28;11.60;;;2.50;;
3000;SDS011;1510;51.072;6.678;2023-04-26T09:25:55;11.53;;;3.93;;
3000;SDS011;1510;51.072;6.678;2023-04-26T09:28:40;11.10;;;2.57;;
3000;SDS011;1510;51.072;6.678;2023-04-26T09:31:07;8.97;;;2.77;;
3000;SDS011;1510;51.072;6.678;2023-04-26T09:33:35;7.77;;;2.57;;
3000;SDS011;1510;51.072;6.678;2023-04-26T09:36:23;11.53;;;3.30;;
3000;SDS011;1510;51.072;6.678;2023-04-26T09:38:50;9.00;;;2.67;;
3000;SDS011;1510;51.072;6.678;2023-04-26T09:41:17;7.13;;;2.40;;
3000;SDS011;1510;51.072;6.678;2023-04-26T09:43:44;9.70;;;3.10;;
3000;SDS011;1510;51.072;6.678;2023-04-26T09:46:19;8.33;;;2.80;;
3000;SDS011;1510;51.072;6.678;2023-04-26T09:48:59;6.63;;;2.03;;
3000;SDS011;1510;51.072;6.678;2023-04-26T09:51:28;7.83;;;2.43;;
3000;SDS011;1510;51.072;6.678;2023-04-26T09:53:56;7.70;;;2.27;;
3000;SDS011;1510;51.072;6.678;2023-04-26T09:56:23;6.83;;;2.70;;
3000;SDS011;1510;51.072;6.678;2023-04-26T09:58:56;5.53;;;2.23;;
3000;SDS011;1510;51.072;6.678;2023-04-26T10:01:25;11.33;;;2.73;;
3000;SDS011;1510;51.072;6.678;2023-04-26T10:03:54;8.57;;;2.00;;
3000;SDS011;1510;51.072;6.678;2023-04-26T10:06:21;7.67;;;2.40;;
3000;SDS011;1510;51.072;6.678;2023-04-26T10:08:50;5.93;;;2.17;;
3000;SDS011;1510;51.072;6.678;2023-04-26T10:11:17;13.73;;;1.87;;
3000;SDS011;1510;51.072;6.678;2023-04-26T10:13:45;12.13;;;2.77;;
3000;SDS011;1510;51.072;6.678;2023-04-26T10:16:16;6.63;;;2.23;;
3000;SDS011;1510;51.072;6.678;2023-04-26T10:18:43;8.47;;;2.50;;
3000;SDS011;1510;51.072;6.678;2023-04-26T10:21:12;11.27;;;2.50;;
3000;SDS011;1510;51.072;6.678;2023-04-26T10:23:46;10.53;;;2.40;;
3000;SDS011;1510;51.072;6.678;2023-04-26T10:29:03;11.57;;;3.60;;
3000;SDS011;1510;51.072;6.678;2023-04-26T10:34:31;8.43;;;2.70;;
3000;SDS011;1510;51.072;6.678;2023-04-26T10:37:07;5.50;;;1.80;;
3000;SDS011;1510;51.072;6.678;2023-04-26T10:39:35;7.83;;;2.70;;
3000;SDS011;1510;51.072;6.678;2023-04-26T10:42:22;8.97;;;3.53;;
3000;SDS011;1510;51.072;6.678;2023-04-26T10:44:52;12.00;;;2.50;;
3000;SDS011;1510;51.072;6.678;2023-04-26T10:47:28;7.10;;;2.53;;
3000;SDS011;1510;51.072;6.678;2023-04-26T10:50:06;10.53;;;2.33;;
3000;SDS011;1510;51.072;6.678;2023-04-26T10:52:34;4.27;;;1.17;;
3000;SDS011;1510;51.072;6.678;2023-04-26T10:55:03;6.73;;;1.73;;
3000;SDS011;1510;51.072;6.678;2023-04-26T10:57:47;6.60;;;2.63;;
3000;SDS011;1510;51.072;6.678;2023-04-26T11:21:25;7.10;;;1.97;;
3000;SDS011;1510;51.072;6.678;2023-04-26T11:29:08;7.47;;;2.23;;
3000;SDS011;1510;51.072;6.678;2023-04-26T11:31:37;9.97;;;2.20;;
3000;SDS011;1510;51.072;6.678;2023-04-26T11:34:04;5.87;;;2.30;;
3000;SDS011;1510;51.072;6.678;2023-04-26T11:36:33;5.43;;;2.10;;
3000;SDS011;1510;51.072;6.678;2023-04-26T11:39:02;20.83;;;2.63;;
3000;SDS011;1510;51.072;6.678;2023-04-26T11:41:29;8.00;;;2.33;;
3000;SDS011;1510;51.072;6.678;2023-04-26T11:43:57;6.07;;;2.10;;
3000;SDS011;1510;51.072;6.678;2023-04-26T11:46:24;5.17;;;1.80;;
3000;SDS011;1510;51.072;6.678;2023-04-26T11:48:51;9.80;;;2.53;;
3000;SDS011;1510;51.072;6.678;2023-04-26T11:51:21;7.10;;;2.20;;
3000;SDS011;1510;51.072;6.678;2023-04-26T11:53:52;9.57;;;1.87;;
3000;SDS011;1510;51.072;6.678;2023-04-26T11:56:19;6.50;;;2.87;;
3000;SDS011;1510;51.072;6.678;2023-04-26T11:58:47;7.87;;;2.97;;
3000;SDS011;1510;51.072;6.678;2023-04-26T12:01:21;8.77;;;3.07;;
3000;SDS011;1510;51.072;6.678;2023-04-26T12:03:49;5.47;;;2.40;;
3000;SDS011;1510;51.072;6.678;2023-04-26T12:06:17;7.70;;;2.37;;
3000;SDS011;1510;51.072;6.678;2023-04-26T12:08:48;8.10;;;2.60;;
3000;SDS011;1510;51.072;6.678;2023-04-26T12:11:17;12.40;;;2.90;;
3000;SDS011;1510;51.072;6.678;2023-04-26T12:13:45;9.00;;;2.57;;
3000;SDS011;1510;51.072;6.678;2023-04-26T12:16:14;10.77;;;2.90;;
3000;SDS011;1510;51.072;6.678;2023-04-26T12:18:48;6.80;;;2.70;;
3000;SDS011;1510;51.072;6.678;2023-04-26T12:21:16;8.40;;;2.23;;
3000;SDS011;1510;51.072;6.678;2023-04-26T12:23:43;7.43;;;2.77;;
3000;SDS011;1510;51.072;6.678;2023-04-26T12:26:12;10.20;;;3.53;;
3000;SDS011;1510;51.072;6.678;2023-04-26T12:28:40;10.20;;;3.23;;
3000;SDS011;1510;51.072;6.678;2023-04-26T12:31:07;8.20;;;2.70;;
3000;SDS011;1510;51.072;6.678;2023-04-26T12:33:35;13.60;;;3.30;;
3000;SDS011;1510;51.072;6.678;2023-04-26T12:36:06;10.80;;;3.30;;
3000;SDS011;1510;51.072;6.678;2023-04-26T12:38:33;7.03;;;3.23;;
3000;SDS011;1510;51.072;6.678;2023-04-26T12:41:00;9.33;;;3.70;;
3000;SDS011;1510;51.072;6.678;2023-04-26T12:43:27;10.90;;;2.73;;
3000;SDS011;1510;51.072;6.678;2023-04-26T12:45:55;8.47;;;3.53;;
3000;SDS011;1510;51.072;6.678;2023-04-26T12:48:22;9.23;;;3.03;;
3000;SDS011;1510;51.072;6.678;2023-04-26T12:50:49;8.63;;;3.10;;
3000;SDS011;1510;51.072;6.678;2023-04-26T12:53:16;7.53;;;3.20;;
3000;SDS011;1510;51.072;6.678;2023-04-26T12:55:44;7.20;;;3.30;;
3000;SDS011;1510;51.072;6.678;2023-04-26T12:58:11;8.13;;;2.73;;
3000;SDS011;1510;51.072;6.678;2023-04-26T13:00:41;7.30;;;2.80;;
3000;SDS011;1510;51.072;6.678;2023-04-26T13:03:09;7.70;;;3.13;;
3000;SDS011;1510;51.072;6.678;2023-04-26T13:05:38;12.60;;;4.90;;
3000;SDS011;1510;51.072;6.678;2023-04-26T13:08:05;9.47;;;3.60;;
3000;SDS011;1510;51.072;6.678;2023-04-26T13:10:32;6.40;;;2.90;;
3000;SDS011;1510;51.072;6.678;2023-04-26T13:12:59;6.43;;;2.10;;
3000;SDS011;1510;51.072;6.678;2023-04-26T13:15:26;8.87;;;2.73;;
3000;SDS011;1510;51.072;6.678;2023-04-26T13:17:54;7.70;;;2.07;;
3000;SDS011;1510;51.072;6.678;2023-04-26T13:20:23;11.63;;;3.53;;
3000;SDS011;1510;51.072;6.678;2023-04-26T13:22:51;6.73;;;2.70;;
3000;SDS011;1510;51.072;6.678;2023-04-26T13:25:18;7.00;;;2.97;;
3000;SDS011;1510;51.072;6.678;2023-04-26T13:27:45;13.30;;;3.23;;
3000;SDS011;1510;51.072;6.678;2023-04-26T13:30:12;10.40;;;2.70;;
3000;SDS011;1510;51.072;6.678;2023-04-26T13:32:40;6.10;;;2.73;;
3000;SDS011;1510;51.072;6.678;2023-04-26T13:35:07;8.00;;;2.73;;
3000;SDS011;1510;51.072;6.678;2023-04-26T13:37:37;5.70;;;3.00;;
3000;SDS011;1510;51.072;6.678;2023-04-26T13:40:09;5.10;;;2.70;;
3000;SDS011;1510;51.072;6.678;2023-04-26T13:42:36;9.17;;;3.10;;
3000;SDS011;1510;51.072;6.678;2023-04-26T13:45:03;12.17;;;3.50;;
3000;SDS011;1510;51.072;6.678;2023-04-26T13:47:33;15.30;;;2.90;;
3000;SDS011;1510;51.072;6.678;2023-04-26T13:50:00;9.97;;;2.90;;
3000;SDS011;1510;51.072;6.678;2023-04-26T13:52:27;15.37;;;3.60;;
3000;SDS011;1510;51.072;6.678;2023-04-26T13:54:55;7.00;;;3.23;;
3000;SDS011;1510;51.072;6.678;2023-04-26T13:57:22;6.63;;;2.80;;
3000;SDS011;1510;51.072;6.678;2023-04-26T13:59:50;8.17;;;3.27;;
3000;SDS011;1510;51.072;6.678;2023-04-26T14:02:17;7.47;;;3.30;;
3000;SDS011;1510;51.072;6.678;2023-04-26T14:04:44;12.33;;;3.23;;
3000;SDS011;1510;51.072;6.678;2023-04-26T14:07:11;10.77;;;3.17;;
3000;SDS011;1510;51.072;6.678;2023-04-26T14:09:38;9.17;;;2.80;;
3000;SDS011;1510;51.072;6.678;2023-04-26T14:12:06;6.80;;;2.90;;
3000;SDS011;1510;51.072;6.678;2023-04-26T14:14:34;11.70;;;3.27;;
3000;SDS011;1510;51.072;6.678;2023-04-26T14:17:01;7.30;;;2.90;;
3000;SDS011;1510;51.072;6.678;2023-04-26T14:19:28;8.90;;;3.43;;
3000;SDS011;1510;51.072;6.678;2023-04-26T14:21:57;10.00;;;3.00;;
3000;SDS011;1510;51.072;6.678;2023-04-26T14:24:24;12.50;;;3.47;;
3000;SDS011;1510;51.072;6.678;2023-04-26T14:26:55;8.63;;;3.37;;
3000;SDS011;1510;51.072;6.678;2023-04-26T14:29:23;10.07;;;3.45;;
3000;SDS011;1510;51.072;6.678;2023-04-26T14:31:50;9.83;;;2.80;;
3000;SDS011;1510;51.072;6.678;2023-04-26T14:34:20;15.27;;;3.17;;
3000;SDS011;1510;51.072;6.678;2023-04-26T14:36:53;6.13;;;2.90;;
3000;SDS011;1510;51.072;6.678;2023-04-26T14:39:21;7.70;;;3.63;;
3000;SDS011;1510;51.072;6.678;2023-04-26T14:41:48;6.23;;;2.80;;
3000;SDS011;1510;51.072;6.678;2023-04-26T14:44:17;13.17;;;3.70;;
3000;SDS011;1510;51.072;6.678;2023-04-26T14:46:49;13.83;;;4.03;;
3000;SDS011;1510;51.072;6.678;2023-04-26T14:49:16;11.67;;;4.00;;
3000;SDS011;1510;51.072;6.678;2023-04-26T14:51:43;13.30;;;3.77;;
3000;SDS011;1510;51.072;6.678;2023-04-26T14:54:10;7.80;;;3.10;;
3000;SDS011;1510;51.072;6.678;2023-04-26T14:56:37;10.40;;;3.33;;
3000;SDS011;1510;51.072;6.678;2023-04-26T14:59:05;12.07;;;3.43;;
3000;SDS011;1510;51.072;6.678;2023-04-26T15:01:33;10.27;;;2.33;;
3000;SDS011;1510;51.072;6.678;2023-04-26T15:04:04;11.20;;;3.30;;
3000;SDS011;1510;51.072;6.678;2023-04-26T15:06:31;12.03;;;3.63;;
3000;SDS011;1510;51.072;6.678;2023-04-26T15:08:58;6.37;;;2.43;;
3000;SDS011;1510;51.072;6.678;2023-04-26T15:11:25;12.40;;;3.40;;
3000;SDS011;1510;51.072;6.678;2023-04-26T15:13:52;11.47;;;3.90;;
3000;SDS011;1510;51.072;6.678;2023-04-26T15:16:19;7.27;;;2.43;;
3000;SDS011;1510;51.072;6.678;2023-04-26T15:18:46;9.77;;;3.30;;
3000;SDS011;1510;51.072;6.678;2023-04-26T15:21:18;7.60;;;3.83;;
3000;SDS011;1510;51.072;6.678;2023-04-26T15:23:46;6.07;;;2.67;;
3000;SDS011;1510;51.072;6.678;2023-04-26T15:26:14;11.87;;;4.30;;